sensor_id;sensor_type;location;lat;lon;timestamp;P1;durP1;ratioP1;P2;durP2;ratioP2
71104;SDS011;58760;48.716;8.962;2023-06-01T00:00:41;9.10;;;2.40;;
71104;SDS011;58760;48.716;8.962;2023-06-01T00:03:06;6.45;;;2.35;;
71104;SDS011;58760;48.716;8.962;2023-06-01T00:05:32;7.82;;;2.50;;
71104;SDS011;58760;48.716;8.962;2023-06-01T00:07:57;6.53;;;2.50;;
71104;SDS011;58760;48.716;8.962;2023-06-01T00:10:22;7.88;;;2.95;;
71104;SDS011;58760;48.716;8.962;2023-06-01T00:12:48;7.10;;;2.33;;
71104;SDS011;58760;48.716;8.962;2023-06-01T00:15:13;5.07;;;2.28;;
71104;SDS011;58760;48.716;8.962;2023-06-01T00:17:39;6.55;;;2.42;;
71104;SDS011;58760;48.716;8.962;2023-06-01T00:20:04;8.30;;;2.67;;
71104;SDS011;58760;48.716;8.962;2023-06-01T00:22:34;6.43;;;2.60;;
71104;SDS011;58760;48.716;8.962;2023-06-01T00:25:03;4.95;;;2.15;;
71104;SDS011;58760;48.716;8.962;2023-06-01T00:27:31;13.02;;;2.92;;
71104;SDS011;58760;48.716;8.962;2023-06-01T00:29:56;9.80;;;2.53;;
71104;SDS011;58760;48.716;8.962;2023-06-01T00:32:21;6.53;;;2.20;;
71104;SDS011;58760;48.716;8.962;2023-06-01T00:34:47;8.63;;;2.88;;
71104;SDS011;58760;48.716;8.962;2023-06-01T00:37:12;7.55;;;2.33;;
71104;SDS011;58760;48.716;8.962;2023-06-01T00:39:37;8.77;;;2.72;;
71104;SDS011;58760;48.716;8.962;2023-06-01T00:42:03;6.78;;;2.70;;
71104;SDS011;58760;48.716;8.962;2023-06-01T00:44:29;6.95;;;2.30;;
71104;SDS011;58760;48.716;8.962;2023-06-01T00:46:54;7.25;;;2.40;;
71104;SDS011;58760;48.716;8.962;2023-06-01T00:49:19;6.90;;;2.58;;
71104;SDS011;58760;48.716;8.962;2023-06-01T00:51:45;10.02;;;2.85;;
71104;SDS011;58760;48.716;8.962;2023-06-01T00:54:10;7.40;;;2.40;;
71104;SDS011;58760;48.716;8.962;2023-06-01T00:56:36;6.70;;;2.55;;
71104;SDS011;58760;48.716;8.962;2023-06-01T00:59:02;8.90;;;3.20;;
71104;SDS011;58760;48.716;8.962;2023-06-01T01:01:27;8.05;;;2.88;;
71104;SDS011;58760;48.716;8.962;2023-06-01T01:03:53;8.02;;;2.40;;
71104;SDS011;58760;48.716;8.962;2023-06-01T01:06:49;6.10;;;2.33;;
71104;SDS011;58760;48.716;8.962;2023-06-01T01:11:54;6.78;;;2.60;;
71104;SDS011;58760;48.716;8.962;2023-06-01T01:14:50;5.95;;;2.28;;
71104;SDS011;58760;48.716;8.962;2023-06-01T01:17:37;7.60;;;2.80;;
71104;SDS011;58760;48.716;8.962;2023-06-01T01:20:12;5.93;;;2.58;;
71104;SDS011;58760;48.716;8.962;2023-06-01T01:31:00;9.50;;;2.53;;
71104;SDS011;58760;48.716;8.962;2023-06-01T01:33:27;6.82;;;2.28;;
71104;SDS011;58760;48.716;8.962;2023-06-01T01:35:54;7.40;;;2.22;;
71104;SDS011;58760;48.716;8.962;2023-06-01T01:38:21;7.18;;;2.50;;
71104;SDS011;58760;48.716;8.962;2023-06-01T01:40:46;6.65;;;2.47;;
71104;SDS011;58760;48.716;8.962;2023-06-01T01:43:12;6.90;;;2.35;;
71104;SDS011;58760;48.716;8.962;2023-06-01T01:45:37;6.60;;;2.53;;
71104;SDS011;58760;48.716;8.962;2023-06-01T01:51:03;8.93;;;2.33;;
71104;SDS011;58760;48.716;8.962;2023-06-01T01:56:03;9.00;;;2.55;;
71104;SDS011;58760;48.716;8.962;2023-06-01T01:58:30;9.55;;;2.53;;
71104;SDS011;58760;48.716;8.962;2023-06-01T02:00:56;6.47;;;2.83;;
71104;SDS011;58760;48.716;8.962;2023-06-01T02:03:23;11.73;;;2.50;;
71104;SDS011;58760;48.716;8.962;2023-06-01T02:05:48;6.63;;;2.22;;
71104;SDS011;58760;48.716;8.962;2023-06-01T02:08:14;7.43;;;2.50;;
71104;SDS011;58760;48.716;8.962;2023-06-01T02:10:39;8.70;;;3.08;;
71104;SDS011;58760;48.716;8.962;2023-06-01T02:15:31;6.78;;;2.22;;
71104;SDS011;58760;48.716;8.962;2023-06-01T02:17:56;8.48;;;2.67;;
71104;SDS011;58760;48.716;8.962;2023-06-01T02:20:21;6.13;;;2.50;;
71104;SDS011;58760;48.716;8.962;2023-06-01T02:22:47;10.55;;;2.75;;
71104;SDS011;58760;48.716;8.962;2023-06-01T02:25:12;11.35;;;2.33;;
71104;SDS011;58760;48.716;8.962;2023-06-01T02:27:37;8.95;;;2.88;;
71104;SDS011;58760;48.716;8.962;2023-06-01T02:30:03;5.85;;;2.85;;
71104;SDS011;58760;48.716;8.962;2023-06-01T02:32:31;7.72;;;2.35;;
71104;SDS011;58760;48.716;8.962;2023-06-01T02:34:57;6.40;;;2.38;;
71104;SDS011;58760;48.716;8.962;2023-06-01T02:37:23;6.60;;;2.67;;
71104;SDS011;58760;48.716;8.962;2023-06-01T02:39:48;7.75;;;2.67;;
71104;SDS011;58760;48.716;8.962;2023-06-01T02:42:13;6.80;;;2.50;;
71104;SDS011;58760;48.716;8.962;2023-06-01T02:44:39;7.20;;;2.80;;
71104;SDS011;58760;48.716;8.962;2023-06-01T02:47:04;5.72;;;2.83;;
71104;SDS011;58760;48.716;8.962;2023-06-01T02:49:30;6.70;;;2.63;;
71104;SDS011;58760;48.716;8.962;2023-06-01T02:51:56;5.57;;;2.13;;
71104;SDS011;58760;48.716;8.962;2023-06-01T02:54:21;7.38;;;2.53;;
71104;SDS011;58760;48.716;8.962;2023-06-01T02:56:46;8.70;;;2.70;;
71104;SDS011;58760;48.716;8.962;2023-06-01T02:59:12;6.68;;;2.53;;
71104;SDS011;58760;48.716;8.962;2023-06-01T03:01:37;8.55;;;2.35;;
71104;SDS011;58760;48.716;8.962;2023-06-01T03:04:03;6.32;;;2.53;;
71104;SDS011;58760;48.716;8.962;2023-06-01T03:06:29;6.25;;;2.50;;
71104;SDS011;58760;48.716;8.962;2023-06-01T03:09:03;7.50;;;2.92;;
71104;SDS011;58760;48.716;8.962;2023-06-01T03:11:29;5.22;;;2.22;;
71104;SDS011;58760;48.716;8.962;2023-06-01T03:13:54;6.30;;;2.55;;
71104;SDS011;58760;48.716;8.962;2023-06-01T03:16:22;8.60;;;2.85;;
71104;SDS011;58760;48.716;8.962;2023-06-01T03:18:48;6.70;;;2.40;;
71104;SDS011;58760;48.716;8.962;2023-06-01T03:21:13;9.65;;;2.80;;
71104;SDS011;58760;48.716;8.962;2023-06-01T03:23:38;5.72;;;2.30;;
71104;SDS011;58760;48.716;8.962;2023-06-01T03:26:08;7.57;;;2.40;;
71104;SDS011;58760;48.716;8.962;2023-06-01T03:28:37;7.57;;;2.63;;
71104;SDS011;58760;48.716;8.962;2023-06-01T03:31:03;7.68;;;2.33;;
71104;SDS011;58760;48.716;8.962;2023-06-01T03:33:29;6.68;;;2.60;;
71104;SDS011;58760;48.716;8.962;2023-06-01T03:35:54;8.15;;;2.60;;
71104;SDS011;58760;48.716;8.962;2023-06-01T03:38:21;7.28;;;2.30;;
71104;SDS011;58760;48.716;8.962;2023-06-01T03:40:46;7.80;;;3.05;;
71104;SDS011;58760;48.716;8.962;2023-06-01T03:43:12;12.45;;;2.72;;
71104;SDS011;58760;48.716;8.962;2023-06-01T03:45:37;5.88;;;2.45;;
71104;SDS011;58760;48.716;8.962;2023-06-01T03:48:02;8.27;;;2.58;;
71104;SDS011;58760;48.716;8.962;2023-06-01T03:50:28;6.85;;;2.55;;
71104;SDS011;58760;48.716;8.962;2023-06-01T03:52:54;10.75;;;2.65;;
71104;SDS011;58760;48.716;8.962;2023-06-01T03:55:20;7.45;;;2.70;;
71104;SDS011;58760;48.716;8.962;2023-06-01T03:57:45;8.60;;;2.60;;
71104;SDS011;58760;48.716;8.962;2023-06-01T04:00:11;9.85;;;3.55;;
71104;SDS011;58760;48.716;8.962;2023-06-01T04:02:49;8.43;;;3.30;;
71104;SDS011;58760;48.716;8.962;2023-06-01T04:05:17;8.32;;;3.00;;
71104;SDS011;58760;48.716;8.962;2023-06-01T04:07:47;8.13;;;2.70;;
71104;SDS011;58760;48.716;8.962;2023-06-01T04:10:14;11.23;;;3.22;;
71104;SDS011;58760;48.716;8.962;2023-06-01T04:12:41;5.50;;;2.30;;
71104;SDS011;58760;48.716;8.962;2023-06-01T04:15:12;8.57;;;2.92;;
71104;SDS011;58760;48.716;8.962;2023-06-01T04:17:38;10.82;;;2.92;;
71104;SDS011;58760;48.716;8.962;2023-06-01T04:22:34;9.70;;;2.70;;
71104;SDS011;58760;48.716;8.962;2023-06-01T04:25:00;6.43;;;2.80;;
71104;SDS011;58760;48.716;8.962;2023-06-01T04:27:25;9.13;;;3.78;;
71104;SDS011;58760;48.716;8.962;2023-06-01T04:29:52;9.45;;;3.20;;
71104;SDS011;58760;48.716;8.962;2023-06-01T04:34:46;8.10;;;2.95;;
71104;SDS011;58760;48.716;8.962;2023-06-01T04:37:15;6.53;;;2.65;;
71104;SDS011;58760;48.716;8.962;2023-06-01T04:39:40;7.38;;;2.70;;
71104;SDS011;58760;48.716;8.962;2023-06-01T04:42:07;6.18;;;2.47;;
71104;SDS011;58760;48.716;8.962;2023-06-01T04:44:33;8.00;;;2.35;;
71104;SDS011;58760;48.716;8.962;2023-06-01T04:46:59;8.18;;;2.60;;
71104;SDS011;58760;48.716;8.962;2023-06-01T04:49:28;7.93;;;2.97;;
71104;SDS011;58760;48.716;8.962;2023-06-01T04:51:53;6.88;;;2.38;;
71104;SDS011;58760;48.716;8.962;2023-06-01T04:54:19;6.97;;;2.72;;
71104;SDS011;58760;48.716;8.962;2023-06-01T04:56:44;7.95;;;2.72;;
71104;SDS011;58760;48.716;8.962;2023-06-01T04:59:09;7.70;;;2.58;;
71104;SDS011;58760;48.716;8.962;2023-06-01T05:01:35;6.40;;;2.58;;
71104;SDS011;58760;48.716;8.962;2023-06-01T05:04:03;6.75;;;2.60;;
71104;SDS011;58760;48.716;8.962;2023-06-01T05:06:29;6.07;;;2.40;;
71104;SDS011;58760;48.716;8.962;2023-06-01T05:08:54;7.85;;;2.30;;
71104;SDS011;58760;48.716;8.962;2023-06-01T05:11:20;13.02;;;3.15;;
71104;SDS011;58760;48.716;8.962;2023-06-01T05:13:46;10.57;;;2.50;;
71104;SDS011;58760;48.716;8.962;2023-06-01T05:16:11;9.88;;;2.90;;
71104;SDS011;58760;48.716;8.962;2023-06-01T05:18:37;9.25;;;2.63;;
71104;SDS011;58760;48.716;8.962;2023-06-01T05:21:03;7.78;;;2.42;;
71104;SDS011;58760;48.716;8.962;2023-06-01T05:23:28;8.05;;;2.50;;
71104;SDS011;58760;48.716;8.962;2023-06-01T05:25:54;9.95;;;2.50;;
71104;SDS011;58760;48.716;8.962;2023-06-01T05:28:26;5.00;;;2.10;;
71104;SDS011;58760;48.716;8.962;2023-06-01T05:30:53;5.60;;;2.28;;
71104;SDS011;58760;48.716;8.962;2023-06-01T05:33:19;7.43;;;2.53;;
71104;SDS011;58760;48.716;8.962;2023-06-01T05:35:44;9.32;;;2.95;;
71104;SDS011;58760;48.716;8.962;2023-06-01T05:38:10;6.43;;;2.00;;
71104;SDS011;58760;48.716;8.962;2023-06-01T05:40:35;10.32;;;2.67;;
71104;SDS011;58760;48.716;8.962;2023-06-01T05:43:01;7.88;;;2.30;;
71104;SDS011;58760;48.716;8.962;2023-06-01T05:45:26;6.20;;;2.33;;
71104;SDS011;58760;48.716;8.962;2023-06-01T05:47:52;8.55;;;2.47;;
71104;SDS011;58760;48.716;8.962;2023-06-01T05:50:17;11.55;;;2.65;;
71104;SDS011;58760;48.716;8.962;2023-06-01T05:52:42;8.27;;;2.40;;
71104;SDS011;58760;48.716;8.962;2023-06-01T05:55:08;9.65;;;2.40;;
71104;SDS011;58760;48.716;8.962;2023-06-01T05:57:33;9.63;;;2.55;;
71104;SDS011;58760;48.716;8.962;2023-06-01T06:00:05;16.67;;;3.00;;
71104;SDS011;58760;48.716;8.962;2023-06-01T06:02:37;13.13;;;3.15;;
71104;SDS011;58760;48.716;8.962;2023-06-01T06:05:03;10.07;;;3.00;;
71104;SDS011;58760;48.716;8.962;2023-06-01T06:07:29;10.85;;;3.25;;
71104;SDS011;58760;48.716;8.962;2023-06-01T06:09:55;14.80;;;2.60;;
71104;SDS011;58760;48.716;8.962;2023-06-01T06:12:20;12.02;;;2.63;;
71104;SDS011;58760;48.716;8.962;2023-06-01T06:14:46;8.32;;;3.15;;
71104;SDS011;58760;48.716;8.962;2023-06-01T06:17:12;10.93;;;2.80;;
71104;SDS011;58760;48.716;8.962;2023-06-01T06:19:38;13.07;;;2.60;;
71104;SDS011;58760;48.716;8.962;2023-06-01T06:22:03;7.28;;;2.33;;
71104;SDS011;58760;48.716;8.962;2023-06-01T06:24:29;5.32;;;2.10;;
71104;SDS011;58760;48.716;8.962;2023-06-01T06:26:54;9.23;;;2.50;;
71104;SDS011;58760;48.716;8.962;2023-06-01T06:29:20;9.85;;;2.58;;
71104;SDS011;58760;48.716;8.962;2023-06-01T06:31:45;8.05;;;2.35;;
71104;SDS011;58760;48.716;8.962;2023-06-01T06:34:11;10.35;;;2.60;;
71104;SDS011;58760;48.716;8.962;2023-06-01T06:36:37;10.32;;;2.30;;
71104;SDS011;58760;48.716;8.962;2023-06-01T06:39:03;9.23;;;3.00;;
71104;SDS011;58760;48.716;8.962;2023-06-01T06:41:28;9.93;;;2.83;;
71104;SDS011;58760;48.716;8.962;2023-06-01T06:43:54;10.38;;;2.60;;
71104;SDS011;58760;48.716;8.962;2023-06-01T06:46:19;8.60;;;2.65;;
71104;SDS011;58760;48.716;8.962;2023-06-01T06:48:44;9.75;;;2.20;;
71104;SDS011;58760;48.716;8.962;2023-06-01T06:51:10;6.82;;;2.67;;
71104;SDS011;58760;48.716;8.962;2023-06-01T06:53:35;8.88;;;2.90;;
71104;SDS011;58760;48.716;8.962;2023-06-01T06:56:00;6.97;;;2.50;;
71104;SDS011;58760;48.716;8.962;2023-06-01T06:58:26;7.80;;;2.70;;
71104;SDS011;58760;48.716;8.962;2023-06-01T07:03:17;7.97;;;2.40;;
71104;SDS011;58760;48.716;8.962;2023-06-01T07:05:43;8.15;;;2.85;;
71104;SDS011;58760;48.716;8.962;2023-06-01T07:08:10;10.48;;;2.72;;
71104;SDS011;58760;48.716;8.962;2023-06-01T07:10:35;8.10;;;2.92;;
71104;SDS011;58760;48.716;8.962;2023-06-01T07:13:01;11.50;;;2.97;;
71104;SDS011;58760;48.716;8.962;2023-06-01T07:15:26;6.75;;;2.85;;
71104;SDS011;58760;48.716;8.962;2023-06-01T07:17:52;12.70;;;2.80;;
71104;SDS011;58760;48.716;8.962;2023-06-01T07:20:17;9.95;;;3.00;;
71104;SDS011;58760;48.716;8.962;2023-06-01T07:22:42;7.13;;;2.50;;
71104;SDS011;58760;48.716;8.962;2023-06-01T07:25:08;10.00;;;3.00;;
71104;SDS011;58760;48.716;8.962;2023-06-01T07:27:34;9.55;;;2.88;;
71104;SDS011;58760;48.716;8.962;2023-06-01T07:32:27;7.82;;;2.58;;
71104;SDS011;58760;48.716;8.962;2023-06-01T07:34:53;7.63;;;2.88;;
71104;SDS011;58760;48.716;8.962;2023-06-01T07:37:18;7.85;;;2.67;;
71104;SDS011;58760;48.716;8.962;2023-06-01T07:39:47;10.32;;;2.83;;
71104;SDS011;58760;48.716;8.962;2023-06-01T07:42:13;11.10;;;2.92;;
71104;SDS011;58760;48.716;8.962;2023-06-01T07:44:40;7.72;;;2.88;;
71104;SDS011;58760;48.716;8.962;2023-06-01T07:47:05;7.07;;;2.90;;
71104;SDS011;58760;48.716;8.962;2023-06-01T07:49:31;6.68;;;2.67;;
71104;SDS011;58760;48.716;8.962;2023-06-01T07:51:56;7.55;;;2.75;;
71104;SDS011;58760;48.716;8.962;2023-06-01T07:54:23;7.25;;;3.08;;
71104;SDS011;58760;48.716;8.962;2023-06-01T07:56:49;8.18;;;3.10;;
71104;SDS011;58760;48.716;8.962;2023-06-01T07:59:14;9.10;;;3.17;;
71104;SDS011;58760;48.716;8.962;2023-06-01T08:01:40;8.23;;;2.78;;
71104;SDS011;58760;48.716;8.962;2023-06-01T08:04:06;9.07;;;3.05;;
71104;SDS011;58760;48.716;8.962;2023-06-01T08:06:31;12.27;;;3.00;;
71104;SDS011;58760;48.716;8.962;2023-06-01T08:09:00;7.85;;;3.22;;
71104;SDS011;58760;48.716;8.962;2023-06-01T08:11:29;8.25;;;2.95;;
71104;SDS011;58760;48.716;8.962;2023-06-01T08:13:54;7.82;;;2.90;;
71104;SDS011;58760;48.716;8.962;2023-06-01T08:16:20;8.82;;;3.08;;
71104;SDS011;58760;48.716;8.962;2023-06-01T08:18:45;9.55;;;3.28;;
71104;SDS011;58760;48.716;8.962;2023-06-01T08:21:11;11.05;;;3.40;;
71104;SDS011;58760;48.716;8.962;2023-06-01T08:23:37;7.43;;;3.13;;
71104;SDS011;58760;48.716;8.962;2023-06-01T08:26:02;10.65;;;3.33;;
71104;SDS011;58760;48.716;8.962;2023-06-01T08:28:28;9.75;;;3.38;;
71104;SDS011;58760;48.716;8.962;2023-06-01T08:30:53;9.38;;;3.53;;
71104;SDS011;58760;48.716;8.962;2023-06-01T08:33:18;11.50;;;3.28;;
71104;SDS011;58760;48.716;8.962;2023-06-01T08:35:44;8.30;;;3.13;;
71104;SDS011;58760;48.716;8.962;2023-06-01T08:38:09;10.90;;;3.45;;
71104;SDS011;58760;48.716;8.962;2023-06-01T08:40:35;7.30;;;2.67;;
71104;SDS011;58760;48.716;8.962;2023-06-01T08:45:37;7.72;;;2.85;;
71104;SDS011;58760;48.716;8.962;2023-06-01T08:48:03;7.15;;;3.00;;
71104;SDS011;58760;48.716;8.962;2023-06-01T08:50:33;5.88;;;2.65;;
71104;SDS011;58760;48.716;8.962;2023-06-01T08:52:59;9.82;;;3.30;;
71104;SDS011;58760;48.716;8.962;2023-06-01T08:55:26;9.25;;;3.13;;
71104;SDS011;58760;48.716;8.962;2023-06-01T08:57:52;8.32;;;3.35;;
71104;SDS011;58760;48.716;8.962;2023-06-01T09:00:19;7.20;;;3.08;;
71104;SDS011;58760;48.716;8.962;2023-06-01T09:02:45;8.45;;;3.60;;
71104;SDS011;58760;48.716;8.962;2023-06-01T09:05:11;9.48;;;3.30;;
71104;SDS011;58760;48.716;8.962;2023-06-01T09:07:38;9.90;;;3.17;;
71104;SDS011;58760;48.716;8.962;2023-06-01T09:10:04;7.50;;;3.60;;
71104;SDS011;58760;48.716;8.962;2023-06-01T09:12:31;9.95;;;3.47;;
71104;SDS011;58760;48.716;8.962;2023-06-01T09:17:34;10.43;;;3.65;;
71104;SDS011;58760;48.716;8.962;2023-06-01T09:20:01;8.65;;;3.47;;
71104;SDS011;58760;48.716;8.962;2023-06-01T09:22:45;7.72;;;3.28;;
71104;SDS011;58760;48.716;8.962;2023-06-01T09:25:12;11.93;;;3.50;;
71104;SDS011;58760;48.716;8.962;2023-06-01T09:27:46;7.90;;;3.85;;
71104;SDS011;58760;48.716;8.962;2023-06-01T09:30:14;9.82;;;3.45;;
71104;SDS011;58760;48.716;8.962;2023-06-01T09:32:40;8.88;;;3.65;;
71104;SDS011;58760;48.716;8.962;2023-06-01T09:35:06;8.10;;;4.18;;
71104;SDS011;58760;48.716;8.962;2023-06-01T09:37:33;10.70;;;4.03;;
71104;SDS011;58760;48.716;8.962;2023-06-01T09:40:02;8.40;;;4.00;;
71104;SDS011;58760;48.716;8.962;2023-06-01T09:42:41;9.05;;;3.42;;
71104;SDS011;58760;48.716;8.962;2023-06-01T09:45:14;11.25;;;4.05;;
71104;SDS011;58760;48.716;8.962;2023-06-01T09:47:43;13.93;;;4.13;;
71104;SDS011;58760;48.716;8.962;2023-06-01T09:50:08;9.73;;;4.03;;
71104;SDS011;58760;48.716;8.962;2023-06-01T09:52:34;8.05;;;3.90;;
71104;SDS011;58760;48.716;8.962;2023-06-01T09:57:30;8.30;;;3.78;;
71104;SDS011;58760;48.716;8.962;2023-06-01T09:59:56;12.90;;;4.38;;
71104;SDS011;58760;48.716;8.962;2023-06-01T10:02:23;10.07;;;3.70;;
71104;SDS011;58760;48.716;8.962;2023-06-01T10:04:50;11.15;;;3.70;;
71104;SDS011;58760;48.716;8.962;2023-06-01T10:07:17;8.90;;;3.70;;
71104;SDS011;58760;48.716;8.962;2023-06-01T10:09:45;8.18;;;4.10;;
71104;SDS011;58760;48.716;8.962;2023-06-01T10:12:16;9.43;;;3.80;;
71104;SDS011;58760;48.716;8.962;2023-06-01T10:17:07;10.48;;;4.10;;
71104;SDS011;58760;48.716;8.962;2023-06-01T10:19:34;11.77;;;4.25;;
71104;SDS011;58760;48.716;8.962;2023-06-01T10:22:02;6.95;;;3.53;;
71104;SDS011;58760;48.716;8.962;2023-06-01T10:24:28;10.15;;;4.00;;
71104;SDS011;58760;48.716;8.962;2023-06-01T10:27:01;8.85;;;3.90;;
71104;SDS011;58760;48.716;8.962;2023-06-01T10:29:32;8.73;;;3.95;;
71104;SDS011;58760;48.716;8.962;2023-06-01T10:34:42;8.40;;;3.45;;
71104;SDS011;58760;48.716;8.962;2023-06-01T10:37:14;7.28;;;3.75;;
71104;SDS011;58760;48.716;8.962;2023-06-01T10:39:40;11.57;;;3.95;;
71104;SDS011;58760;48.716;8.962;2023-06-01T10:47:43;8.10;;;3.80;;
71104;SDS011;58760;48.716;8.962;2023-06-01T10:54:55;9.57;;;3.83;;
71104;SDS011;58760;48.716;8.962;2023-06-01T10:57:41;10.73;;;4.40;;
71104;SDS011;58760;48.716;8.962;2023-06-01T11:00:11;10.45;;;3.85;;
71104;SDS011;58760;48.716;8.962;2023-06-01T11:02:56;13.05;;;4.50;;
71104;SDS011;58760;48.716;8.962;2023-06-01T11:08:03;8.52;;;3.72;;
71104;SDS011;58760;48.716;8.962;2023-06-01T11:13:25;8.10;;;4.03;;
71104;SDS011;58760;48.716;8.962;2023-06-01T11:26:29;10.02;;;4.00;;
71104;SDS011;58760;48.716;8.962;2023-06-01T11:29:30;11.55;;;3.70;;
71104;SDS011;58760;48.716;8.962;2023-06-01T11:31:54;10.90;;;4.05;;
71104;SDS011;58760;48.716;8.962;2023-06-01T11:34:37;8.80;;;4.35;;
71104;SDS011;58760;48.716;8.962;2023-06-01T11:37:12;7.68;;;3.65;;
71104;SDS011;58760;48.716;8.962;2023-06-01T11:39:39;11.00;;;4.18;;
71104;SDS011;58760;48.716;8.962;2023-06-01T11:46:57;13.20;;;3.85;;
71104;SDS011;58760;48.716;8.962;2023-06-01T11:49:23;9.43;;;3.72;;
71104;SDS011;58760;48.716;8.962;2023-06-01T11:51:50;9.80;;;3.83;;
71104;SDS011;58760;48.716;8.962;2023-06-01T11:54:18;9.20;;;3.80;;
71104;SDS011;58760;48.716;8.962;2023-06-01T11:56:53;9.95;;;3.92;;
71104;SDS011;58760;48.716;8.962;2023-06-01T11:59:20;8.00;;;3.65;;
71104;SDS011;58760;48.716;8.962;2023-06-01T12:01:47;9.48;;;3.75;;
71104;SDS011;58760;48.716;8.962;2023-06-01T12:04:13;14.73;;;4.03;;
71104;SDS011;58760;48.716;8.962;2023-06-01T12:06:38;7.75;;;3.85;;
71104;SDS011;58760;48.716;8.962;2023-06-01T12:09:04;13.48;;;4.50;;
71104;SDS011;58760;48.716;8.962;2023-06-01T12:11:31;10.23;;;3.60;;
71104;SDS011;58760;48.716;8.962;2023-06-01T12:13:57;8.30;;;3.47;;
71104;SDS011;58760;48.716;8.962;2023-06-01T12:16:24;9.20;;;3.80;;
71104;SDS011;58760;48.716;8.962;2023-06-01T12:18:52;11.40;;;3.45;;
71104;SDS011;58760;48.716;8.962;2023-06-01T12:21:18;12.48;;;3.50;;
71104;SDS011;58760;48.716;8.962;2023-06-01T12:23:48;11.60;;;3.80;;
71104;SDS011;58760;48.716;8.962;2023-06-01T12:26:16;8.43;;;3.45;;
71104;SDS011;58760;48.716;8.962;2023-06-01T12:28:51;10.35;;;3.42;;
71104;SDS011;58760;48.716;8.962;2023-06-01T12:31:19;8.70;;;3.70;;
71104;SDS011;58760;48.716;8.962;2023-06-01T12:33:46;7.57;;;3.33;;
71104;SDS011;58760;48.716;8.962;2023-06-01T12:38:59;9.38;;;3.72;;
71104;SDS011;58760;48.716;8.962;2023-06-01T12:41:25;8.35;;;3.40;;
71104;SDS011;58760;48.716;8.962;2023-06-01T12:43:51;8.80;;;3.22;;
71104;SDS011;58760;48.716;8.962;2023-06-01T12:46:20;7.90;;;3.33;;
71104;SDS011;58760;48.716;8.962;2023-06-01T12:48:48;9.98;;;3.55;;
71104;SDS011;58760;48.716;8.962;2023-06-01T12:51:14;7.80;;;3.45;;
71104;SDS011;58760;48.716;8.962;2023-06-01T12:53:41;8.65;;;3.50;;
71104;SDS011;58760;48.716;8.962;2023-06-01T12:56:10;8.40;;;3.30;;
71104;SDS011;58760;48.716;8.962;2023-06-01T12:58:36;7.28;;;3.63;;
71104;SDS011;58760;48.716;8.962;2023-06-01T13:01:02;8.43;;;3.63;;
71104;SDS011;58760;48.716;8.962;2023-06-01T13:03:27;10.48;;;3.53;;
71104;SDS011;58760;48.716;8.962;2023-06-01T13:05:54;6.65;;;3.22;;
71104;SDS011;58760;48.716;8.962;2023-06-01T13:08:19;8.52;;;3.50;;
71104;SDS011;58760;48.716;8.962;2023-06-01T13:10:45;9.50;;;3.85;;
71104;SDS011;58760;48.716;8.962;2023-06-01T13:13:11;7.60;;;3.33;;
71104;SDS011;58760;48.716;8.962;2023-06-01T13:15:40;8.65;;;3.40;;
71104;SDS011;58760;48.716;8.962;2023-06-01T13:18:07;8.30;;;3.83;;
71104;SDS011;58760;48.716;8.962;2023-06-01T13:20:33;8.82;;;3.80;;
71104;SDS011;58760;48.716;8.962;2023-06-01T13:22:58;7.88;;;3.67;;
71104;SDS011;58760;48.716;8.962;2023-06-01T13:25:24;9.30;;;3.78;;
71104;SDS011;58760;48.716;8.962;2023-06-01T13:27:49;8.52;;;3.90;;
71104;SDS011;58760;48.716;8.962;2023-06-01T13:30:15;9.40;;;3.45;;
71104;SDS011;58760;48.716;8.962;2023-06-01T13:32:42;10.32;;;4.13;;
71104;SDS011;58760;48.716;8.962;2023-06-01T13:35:08;10.68;;;3.40;;
71104;SDS011;58760;48.716;8.962;2023-06-01T13:37:34;11.20;;;3.60;;
71104;SDS011;58760;48.716;8.962;2023-06-01T13:40:01;7.95;;;3.42;;
71104;SDS011;58760;48.716;8.962;2023-06-01T13:42:27;6.50;;;3.33;;
71104;SDS011;58760;48.716;8.962;2023-06-01T13:44:53;8.90;;;3.47;;
71104;SDS011;58760;48.716;8.962;2023-06-01T13:47:19;7.13;;;3.53;;
71104;SDS011;58760;48.716;8.962;2023-06-01T13:49:45;9.07;;;3.60;;
71104;SDS011;58760;48.716;8.962;2023-06-01T13:52:11;8.00;;;3.00;;
71104;SDS011;58760;48.716;8.962;2023-06-01T13:54:37;8.63;;;3.45;;
71104;SDS011;58760;48.716;8.962;2023-06-01T13:57:03;8.57;;;2.95;;
71104;SDS011;58760;48.716;8.962;2023-06-01T13:59:29;8.30;;;3.08;;
71104;SDS011;58760;48.716;8.962;2023-06-01T14:01:59;10.10;;;3.20;;
71104;SDS011;58760;48.716;8.962;2023-06-01T14:04:24;9.73;;;3.20;;
71104;SDS011;58760;48.716;8.962;2023-06-01T14:06:50;10.70;;;3.35;;
71104;SDS011;58760;48.716;8.962;2023-06-01T14:09:18;6.90;;;3.20;;
71104;SDS011;58760;48.716;8.962;2023-06-01T14:11:43;7.47;;;2.97;;
71104;SDS011;58760;48.716;8.962;2023-06-01T14:14:09;7.05;;;3.13;;
71104;SDS011;58760;48.716;8.962;2023-06-01T14:16:35;8.90;;;3.10;;
71104;SDS011;58760;48.716;8.962;2023-06-01T14:19:00;13.52;;;3.25;;
71104;SDS011;58760;48.716;8.962;2023-06-01T14:21:26;6.68;;;3.20;;
71104;SDS011;58760;48.716;8.962;2023-06-01T14:23:51;9.60;;;3.15;;
71104;SDS011;58760;48.716;8.962;2023-06-01T14:26:17;8.95;;;3.42;;
71104;SDS011;58760;48.716;8.962;2023-06-01T14:28:42;7.85;;;3.03;;
71104;SDS011;58760;48.716;8.962;2023-06-01T14:31:07;9.50;;;2.92;;
71104;SDS011;58760;48.716;8.962;2023-06-01T14:33:33;10.32;;;3.60;;
71104;SDS011;58760;48.716;8.962;2023-06-01T14:35:59;7.60;;;3.25;;
71104;SDS011;58760;48.716;8.962;2023-06-01T14:38:24;8.82;;;3.10;;
71104;SDS011;58760;48.716;8.962;2023-06-01T14:40:49;7.40;;;3.38;;
71104;SDS011;58760;48.716;8.962;2023-06-01T14:43:15;5.78;;;2.90;;
71104;SDS011;58760;48.716;8.962;2023-06-01T14:45:40;8.52;;;2.85;;
71104;SDS011;58760;48.716;8.962;2023-06-01T14:48:05;7.60;;;2.60;;
71104;SDS011;58760;48.716;8.962;2023-06-01T14:50:31;8.35;;;3.13;;
71104;SDS011;58760;48.716;8.962;2023-06-01T14:52:56;6.95;;;2.92;;
71104;SDS011;58760;48.716;8.962;2023-06-01T14:55:24;7.22;;;2.50;;
71104;SDS011;58760;48.716;8.962;2023-06-01T14:57:50;5.28;;;2.42;;
71104;SDS011;58760;48.716;8.962;2023-06-01T15:00:16;7.53;;;2.80;;
71104;SDS011;58760;48.716;8.962;2023-06-01T15:02:42;10.35;;;2.63;;
71104;SDS011;58760;48.716;8.962;2023-06-01T15:05:07;8.57;;;2.72;;
71104;SDS011;58760;48.716;8.962;2023-06-01T15:07:33;6.97;;;2.22;;
71104;SDS011;58760;48.716;8.962;2023-06-01T15:09:58;6.88;;;2.50;;
71104;SDS011;58760;48.716;8.962;2023-06-01T15:12:24;7.28;;;2.70;;
71104;SDS011;58760;48.716;8.962;2023-06-01T15:14:49;6.25;;;2.63;;
71104;SDS011;58760;48.716;8.962;2023-06-01T15:17:16;9.02;;;3.22;;
71104;SDS011;58760;48.716;8.962;2023-06-01T15:19:42;11.55;;;2.90;;
71104;SDS011;58760;48.716;8.962;2023-06-01T15:22:07;5.93;;;2.75;;
71104;SDS011;58760;48.716;8.962;2023-06-01T15:24:32;7.32;;;2.33;;
71104;SDS011;58760;48.716;8.962;2023-06-01T15:26:58;6.38;;;2.42;;
71104;SDS011;58760;48.716;8.962;2023-06-01T15:29:23;6.80;;;2.60;;
71104;SDS011;58760;48.716;8.962;2023-06-01T15:31:49;11.05;;;2.80;;
71104;SDS011;58760;48.716;8.962;2023-06-01T15:34:14;10.60;;;2.50;;
71104;SDS011;58760;48.716;8.962;2023-06-01T15:36:40;7.32;;;2.50;;
71104;SDS011;58760;48.716;8.962;2023-06-01T15:39:05;7.47;;;2.40;;
71104;SDS011;58760;48.716;8.962;2023-06-01T15:41:31;6.75;;;2.40;;
71104;SDS011;58760;48.716;8.962;2023-06-01T15:43:56;10.18;;;2.33;;
71104;SDS011;58760;48.716;8.962;2023-06-01T15:46:22;7.95;;;2.05;;
71104;SDS011;58760;48.716;8.962;2023-06-01T15:48:47;5.53;;;2.00;;
71104;SDS011;58760;48.716;8.962;2023-06-01T15:51:12;5.55;;;2.72;;
71104;SDS011;58760;48.716;8.962;2023-06-01T15:53:38;7.30;;;2.53;;
71104;SDS011;58760;48.716;8.962;2023-06-01T15:56:04;7.43;;;2.85;;
71104;SDS011;58760;48.716;8.962;2023-06-01T15:58:29;6.28;;;1.83;;